sensor_id;sensor_type;location;lat;lon;timestamp;temperature;humidity
1778;DHT22;886;50.082;8.222;2022-07-24T00:00:07;23.40;75.40
1778;DHT22;886;50.082;8.222;2022-07-24T00:02:36;23.40;75.50
1778;DHT22;886;50.082;8.222;2022-07-24T00:05:04;23.40;75.70
1778;DHT22;886;50.082;8.222;2022-07-24T00:07:32;23.40;76.10
1778;DHT22;886;50.082;8.222;2022-07-24T00:10:01;23.30;76.20
1778;DHT22;886;50.082;8.222;2022-07-24T00:12:29;23.20;76.10
1778;DHT22;886;50.082;8.222;2022-07-24T00:14:56;23.20;76.40
1778;DHT22;886;50.082;8.222;2022-07-24T00:17:23;23.20;76.30
1778;DHT22;886;50.082;8.222;2022-07-24T00:19:55;23.10;76.50
1778;DHT22;886;50.082;8.222;2022-07-24T00:22:22;23.00;76.80
1778;DHT22;886;50.082;8.222;2022-07-24T00:24:50;23.00;77.10
1778;DHT22;886;50.082;8.222;2022-07-24T00:27:17;22.90;77.20
1778;DHT22;886;50.082;8.222;2022-07-24T00:29:44;22.90;77.30
1778;DHT22;886;50.082;8.222;2022-07-24T00:32:11;22.90;77.40
1778;DHT22;886;50.082;8.222;2022-07-24T00:34:38;22.80;77.60
1778;DHT22;886;50.082;8.222;2022-07-24T00:37:07;22.80;77.70
1778;DHT22;886;50.082;8.222;2022-07-24T00:39:34;22.70;77.80
1778;DHT22;886;50.082;8.222;2022-07-24T00:42:01;22.70;78.00
1778;DHT22;886;50.082;8.222;2022-07-24T00:44:28;22.70;78.20
1778;DHT22;886;50.082;8.222;2022-07-24T00:46:55;22.60;78.20
1778;DHT22;886;50.082;8.222;2022-07-24T00:49:25;22.60;78.40
1778;DHT22;886;50.082;8.222;2022-07-24T00:51:52;22.50;78.80
1778;DHT22;886;50.082;8.222;2022-07-24T00:54:22;22.40;78.80
1778;DHT22;886;50.082;8.222;2022-07-24T00:56:51;22.40;79.00
1778;DHT22;886;50.082;8.222;2022-07-24T00:59:20;22.40;79.70
1778;DHT22;886;50.082;8.222;2022-07-24T01:01:47;22.40;79.30
1778;DHT22;886;50.082;8.222;2022-07-24T01:04:15;22.40;79.50
1778;DHT22;886;50.082;8.222;2022-07-24T01:06:43;22.30;79.70
1778;DHT22;886;50.082;8.222;2022-07-24T01:09:11;22.20;79.90
1778;DHT22;886;50.082;8.222;2022-07-24T01:11:40;22.20;80.10
1778;DHT22;886;50.082;8.222;2022-07-24T01:14:09;22.20;80.20
1778;DHT22;886;50.082;8.222;2022-07-24T01:16:37;22.20;80.40
1778;DHT22;886;50.082;8.222;2022-07-24T01:19:05;22.20;80.60
1778;DHT22;886;50.082;8.222;2022-07-24T01:21:34;22.10;80.90
1778;DHT22;886;50.082;8.222;2022-07-24T01:24:02;22.10;81.10
1778;DHT22;886;50.082;8.222;2022-07-24T01:26:29;22.10;81.20
1778;DHT22;886;50.082;8.222;2022-07-24T01:28:56;22.10;81.10
1778;DHT22;886;50.082;8.222;2022-07-24T01:31:23;22.10;81.10
1778;DHT22;886;50.082;8.222;2022-07-24T01:33:50;22.20;81.20
1778;DHT22;886;50.082;8.222;2022-07-24T01:36:17;22.10;81.90
1778;DHT22;886;50.082;8.222;2022-07-24T01:38:48;22.00;81.60
1778;DHT22;886;50.082;8.222;2022-07-24T01:41:15;21.90;82.20
1778;DHT22;886;50.082;8.222;2022-07-24T01:43:42;21.80;82.80
1778;DHT22;886;50.082;8.222;2022-07-24T01:46:09;21.80;83.00
1778;DHT22;886;50.082;8.222;2022-07-24T01:48:38;21.90;83.00
1778;DHT22;886;50.082;8.222;2022-07-24T01:51:06;21.90;83.00
1778;DHT22;886;50.082;8.222;2022-07-24T01:53:33;21.90;82.70
1778;DHT22;886;50.082;8.222;2022-07-24T01:56:02;21.80;82.90
1778;DHT22;886;50.082;8.222;2022-07-24T01:58:30;21.80;83.20
1778;DHT22;886;50.082;8.222;2022-07-24T02:00:58;21.90;83.20
1778;DHT22;886;50.082;8.222;2022-07-24T02:03:25;22.00;82.70
1778;DHT22;886;50.082;8.222;2022-07-24T02:05:52;21.90;82.70
1778;DHT22;886;50.082;8.222;2022-07-24T02:08:19;21.90;82.70
1778;DHT22;886;50.082;8.222;2022-07-24T02:10:46;21.90;83.10
1778;DHT22;886;50.082;8.222;2022-07-24T02:13:14;21.90;82.90
1778;DHT22;886;50.082;8.222;2022-07-24T02:15:43;21.80;83.20
1778;DHT22;886;50.082;8.222;2022-07-24T02:18:10;21.90;83.50
1778;DHT22;886;50.082;8.222;2022-07-24T02:20:37;21.70;83.70
1778;DHT22;886;50.082;8.222;2022-07-24T02:23:05;21.90;83.90
1778;DHT22;886;50.082;8.222;2022-07-24T02:25:32;22.00;83.30
1778;DHT22;886;50.082;8.222;2022-07-24T02:27:59;22.00;83.20
1778;DHT22;886;50.082;8.222;2022-07-24T02:30:27;21.90;83.00
1778;DHT22;886;50.082;8.222;2022-07-24T02:32:57;21.90;82.70
1778;DHT22;886;50.082;8.222;2022-07-24T02:35:25;21.90;82.80
1778;DHT22;886;50.082;8.222;2022-07-24T02:37:52;21.90;82.70
1778;DHT22;886;50.082;8.222;2022-07-24T02:40:19;21.80;83.20
1778;DHT22;886;50.082;8.222;2022-07-24T02:42:46;21.80;83.20
1778;DHT22;886;50.082;8.222;2022-07-24T02:45:13;21.80;83.20
1778;DHT22;886;50.082;8.222;2022-07-24T02:47:50;21.70;83.40
1778;DHT22;886;50.082;8.222;2022-07-24T02:50:18;21.60;83.80
1778;DHT22;886;50.082;8.222;2022-07-24T02:52:47;21.60;84.30
1778;DHT22;886;50.082;8.222;2022-07-24T02:55:14;21.60;84.20
1778;DHT22;886;50.082;8.222;2022-07-24T02:57:42;21.60;84.10
1778;DHT22;886;50.082;8.222;2022-07-24T03:00:13;21.60;83.90
1778;DHT22;886;50.082;8.222;2022-07-24T03:02:42;21.60;84.20
1778;DHT22;886;50.082;8.222;2022-07-24T03:05:11;21.50;84.30
1778;DHT22;886;50.082;8.222;2022-07-24T03:07:39;21.50;84.40
1778;DHT22;886;50.082;8.222;2022-07-24T03:10:09;21.50;84.50
1778;DHT22;886;50.082;8.222;2022-07-24T03:12:37;21.40;84.60
1778;DHT22;886;50.082;8.222;2022-07-24T03:15:05;21.40;84.70
1778;DHT22;886;50.082;8.222;2022-07-24T03:17:35;21.30;84.50
1778;DHT22;886;50.082;8.222;2022-07-24T03:20:04;21.40;84.40
1778;DHT22;886;50.082;8.222;2022-07-24T03:22:33;21.30;84.40
1778;DHT22;886;50.082;8.222;2022-07-24T03:25:00;21.40;84.60
1778;DHT22;886;50.082;8.222;2022-07-24T03:27:28;21.30;85.20
1778;DHT22;886;50.082;8.222;2022-07-24T03:29:55;21.40;84.50
1778;DHT22;886;50.082;8.222;2022-07-24T03:32:22;21.40;84.60
1778;DHT22;886;50.082;8.222;2022-07-24T03:34:49;21.40;84.50
1778;DHT22;886;50.082;8.222;2022-07-24T03:37:16;21.40;84.70
1778;DHT22;886;50.082;8.222;2022-07-24T03:39:44;21.40;84.90
1778;DHT22;886;50.082;8.222;2022-07-24T03:42:11;21.40;84.60
1778;DHT22;886;50.082;8.222;2022-07-24T03:44:39;21.30;84.80
1778;DHT22;886;50.082;8.222;2022-07-24T03:47:06;21.30;85.20
1778;DHT22;886;50.082;8.222;2022-07-24T03:49:33;21.20;85.60
1778;DHT22;886;50.082;8.222;2022-07-24T03:52:00;21.20;85.80
1778;DHT22;886;50.082;8.222;2022-07-24T03:54:28;21.30;86.00
1778;DHT22;886;50.082;8.222;2022-07-24T03:56:56;21.30;85.80
1778;DHT22;886;50.082;8.222;2022-07-24T03:59:23;21.30;85.60
1778;DHT22;886;50.082;8.222;2022-07-24T04:01:50;21.20;86.00
1778;DHT22;886;50.082;8.222;2022-07-24T04:04:17;21.20;86.30
1778;DHT22;886;50.082;8.222;2022-07-24T04:06:44;21.10;86.20
1778;DHT22;886;50.082;8.222;2022-07-24T04:09:11;21.00;86.70
1778;DHT22;886;50.082;8.222;2022-07-24T04:11:39;21.10;86.80
1778;DHT22;886;50.082;8.222;2022-07-24T04:14:08;21.20;86.40
1778;DHT22;886;50.082;8.222;2022-07-24T04:16:35;21.10;86.50
1778;DHT22;886;50.082;8.222;2022-07-24T04:19:02;21.20;86.40
1778;DHT22;886;50.082;8.222;2022-07-24T04:21:33;21.20;86.60
1778;DHT22;886;50.082;8.222;2022-07-24T04:24:00;21.20;86.50
1778;DHT22;886;50.082;8.222;2022-07-24T04:26:27;21.20;86.20
1778;DHT22;886;50.082;8.222;2022-07-24T04:28:54;21.20;86.20
1778;DHT22;886;50.082;8.222;2022-07-24T04:31:23;21.10;86.50
1778;DHT22;886;50.082;8.222;2022-07-24T04:33:54;21.20;86.80
1778;DHT22;886;50.082;8.222;2022-07-24T04:36:27;21.20;87.10
1778;DHT22;886;50.082;8.222;2022-07-24T04:38:54;21.20;86.90
1778;DHT22;886;50.082;8.222;2022-07-24T04:41:21;21.20;86.80
1778;DHT22;886;50.082;8.222;2022-07-24T04:43:48;21.30;86.70
1778;DHT22;886;50.082;8.222;2022-07-24T04:46:16;21.30;86.30
1778;DHT22;886;50.082;8.222;2022-07-24T04:48:45;21.30;86.50
1778;DHT22;886;50.082;8.222;2022-07-24T04:51:12;21.30;86.60
1778;DHT22;886;50.082;8.222;2022-07-24T04:53:40;21.40;87.20
1778;DHT22;886;50.082;8.222;2022-07-24T04:56:07;21.40;87.50
1778;DHT22;886;50.082;8.222;2022-07-24T04:58:34;21.40;87.40
1778;DHT22;886;50.082;8.222;2022-07-24T05:01:01;21.50;87.60
1778;DHT22;886;50.082;8.222;2022-07-24T05:03:28;21.50;88.00
1778;DHT22;886;50.082;8.222;2022-07-24T05:05:56;21.40;88.30
1778;DHT22;886;50.082;8.222;2022-07-24T05:08:24;21.30;89.20
1778;DHT22;886;50.082;8.222;2022-07-24T05:10:51;21.30;89.20
1778;DHT22;886;50.082;8.222;2022-07-24T05:13:18;21.30;89.50
1778;DHT22;886;50.082;8.222;2022-07-24T05:15:45;21.40;89.60
1778;DHT22;886;50.082;8.222;2022-07-24T05:18:12;21.50;89.60
1778;DHT22;886;50.082;8.222;2022-07-24T05:20:42;21.50;89.80
1778;DHT22;886;50.082;8.222;2022-07-24T05:23:13;21.30;90.30
1778;DHT22;886;50.082;8.222;2022-07-24T05:25:40;21.30;90.50
1778;DHT22;886;50.082;8.222;2022-07-24T05:28:14;21.40;90.50
1778;DHT22;886;50.082;8.222;2022-07-24T05:30:41;21.50;90.50
1778;DHT22;886;50.082;8.222;2022-07-24T05:33:08;21.50;90.70
1778;DHT22;886;50.082;8.222;2022-07-24T05:35:36;21.50;90.80
1778;DHT22;886;50.082;8.222;2022-07-24T05:38:03;21.50;90.90
1778;DHT22;886;50.082;8.222;2022-07-24T05:40:31;21.60;91.10
1778;DHT22;886;50.082;8.222;2022-07-24T05:43:01;21.70;91.00
1778;DHT22;886;50.082;8.222;2022-07-24T05:45:28;21.80;90.80
1778;DHT22;886;50.082;8.222;2022-07-24T05:47:55;21.80;91.00
1778;DHT22;886;50.082;8.222;2022-07-24T05:50:22;21.90;91.00
1778;DHT22;886;50.082;8.222;2022-07-24T05:52:49;22.00;90.90
1778;DHT22;886;50.082;8.222;2022-07-24T05:55:16;22.10;90.80
1778;DHT22;886;50.082;8.222;2022-07-24T05:57:45;22.10;91.10
1778;DHT22;886;50.082;8.222;2022-07-24T06:00:14;22.10;91.20
1778;DHT22;886;50.082;8.222;2022-07-24T06:02:44;22.20;91.20
1778;DHT22;886;50.082;8.222;2022-07-24T06:05:12;22.20;91.20
1778;DHT22;886;50.082;8.222;2022-07-24T06:07:39;22.30;91.20
1778;DHT22;886;50.082;8.222;2022-07-24T06:10:07;22.30;91.30
1778;DHT22;886;50.082;8.222;2022-07-24T06:12:40;22.30;91.50
1778;DHT22;886;50.082;8.222;2022-07-24T06:15:10;22.40;91.10
1778;DHT22;886;50.082;8.222;2022-07-24T06:17:37;22.50;91.00
1778;DHT22;886;50.082;8.222;2022-07-24T06:20:06;22.60;90.10
1778;DHT22;886;50.082;8.222;2022-07-24T06:22:35;22.70;90.80
1778;DHT22;886;50.082;8.222;2022-07-24T06:25:02;22.70;89.60
1778;DHT22;886;50.082;8.222;2022-07-24T06:27:30;22.80;87.40
1778;DHT22;886;50.082;8.222;2022-07-24T06:29:57;22.90;88.00
1778;DHT22;886;50.082;8.222;2022-07-24T06:32:25;22.90;87.70
1778;DHT22;886;50.082;8.222;2022-07-24T06:34:53;23.10;85.00
1778;DHT22;886;50.082;8.222;2022-07-24T06:37:20;23.20;83.20
1778;DHT22;886;50.082;8.222;2022-07-24T06:39:47;23.30;83.00
1778;DHT22;886;50.082;8.222;2022-07-24T06:42:14;23.50;81.70
1778;DHT22;886;50.082;8.222;2022-07-24T06:44:41;23.50;81.90
1778;DHT22;886;50.082;8.222;2022-07-24T06:47:08;23.60;81.70
1778;DHT22;886;50.082;8.222;2022-07-24T06:49:37;23.70;81.40
1778;DHT22;886;50.082;8.222;2022-07-24T06:52:04;23.80;80.80
1778;DHT22;886;50.082;8.222;2022-07-24T06:54:31;23.80;79.30
1778;DHT22;886;50.082;8.222;2022-07-24T06:57:01;23.90;78.50
1778;DHT22;886;50.082;8.222;2022-07-24T06:59:28;24.10;78.60
1778;DHT22;886;50.082;8.222;2022-07-24T07:01:56;24.20;77.80
1778;DHT22;886;50.082;8.222;2022-07-24T07:04:23;24.40;77.80
1778;DHT22;886;50.082;8.222;2022-07-24T07:06:51;24.50;76.90
1778;DHT22;886;50.082;8.222;2022-07-24T07:09:18;24.60;77.90
1778;DHT22;886;50.082;8.222;2022-07-24T07:11:45;24.80;77.20
1778;DHT22;886;50.082;8.222;2022-07-24T07:14:18;25.00;75.80
1778;DHT22;886;50.082;8.222;2022-07-24T07:16:45;25.30;76.30
1778;DHT22;886;50.082;8.222;2022-07-24T07:19:13;25.70;74.20
1778;DHT22;886;50.082;8.222;2022-07-24T07:21:40;26.10;73.00
1778;DHT22;886;50.082;8.222;2022-07-24T07:24:08;26.40;72.60
1778;DHT22;886;50.082;8.222;2022-07-24T07:26:36;26.70;71.60
1778;DHT22;886;50.082;8.222;2022-07-24T07:29:03;26.90;71.10
1778;DHT22;886;50.082;8.222;2022-07-24T07:31:33;27.40;69.70
1778;DHT22;886;50.082;8.222;2022-07-24T07:34:01;27.40;69.30
1778;DHT22;886;50.082;8.222;2022-07-24T07:36:28;27.10;70.00
1778;DHT22;886;50.082;8.222;2022-07-24T07:38:55;26.80;70.10
1778;DHT22;886;50.082;8.222;2022-07-24T07:41:25;26.80;71.10
1778;DHT22;886;50.082;8.222;2022-07-24T07:43:52;26.60;71.50
1778;DHT22;886;50.082;8.222;2022-07-24T07:46:19;26.40;72.00
1778;DHT22;886;50.082;8.222;2022-07-24T07:48:47;26.20;72.80
1778;DHT22;886;50.082;8.222;2022-07-24T07:51:14;26.10;73.20
1778;DHT22;886;50.082;8.222;2022-07-24T07:53:46;26.00;73.50
1778;DHT22;886;50.082;8.222;2022-07-24T07:56:14;26.10;73.20
1778;DHT22;886;50.082;8.222;2022-07-24T07:58:43;26.10;71.70
1778;DHT22;886;50.082;8.222;2022-07-24T08:01:10;26.00;73.80
1778;DHT22;886;50.082;8.222;2022-07-24T08:03:37;26.00;72.50
1778;DHT22;886;50.082;8.222;2022-07-24T08:06:05;26.00;71.60
1778;DHT22;886;50.082;8.222;2022-07-24T08:08:41;26.10;71.90
1778;DHT22;886;50.082;8.222;2022-07-24T08:11:08;26.20;72.20
1778;DHT22;886;50.082;8.222;2022-07-24T08:13:35;26.20;72.20
1778;DHT22;886;50.082;8.222;2022-07-24T08:16:04;26.20;72.20
1778;DHT22;886;50.082;8.222;2022-07-24T08:18:35;26.30;71.40
1778;DHT22;886;50.082;8.222;2022-07-24T08:21:02;26.50;71.90
1778;DHT22;886;50.082;8.222;2022-07-24T08:23:29;26.60;70.40
1778;DHT22;886;50.082;8.222;2022-07-24T08:25:57;26.80;70.20
1778;DHT22;886;50.082;8.222;2022-07-24T08:28:24;27.10;70.20
1778;DHT22;886;50.082;8.222;2022-07-24T08:30:51;27.60;69.20
1778;DHT22;886;50.082;8.222;2022-07-24T08:33:20;27.80;69.00
1778;DHT22;886;50.082;8.222;2022-07-24T08:35:47;27.80;68.20
1778;DHT22;886;50.082;8.222;2022-07-24T08:38:17;27.80;68.30
1778;DHT22;886;50.082;8.222;2022-07-24T08:40:45;27.80;69.50
1778;DHT22;886;50.082;8.222;2022-07-24T08:43:12;27.70;68.20
1778;DHT22;886;50.082;8.222;2022-07-24T08:45:41;27.70;67.80
1778;DHT22;886;50.082;8.222;2022-07-24T08:48:20;27.60;67.00
1778;DHT22;886;50.082;8.222;2022-07-24T08:50:49;27.50;66.80
1778;DHT22;886;50.082;8.222;2022-07-24T08:53:19;27.40;66.60
1778;DHT22;886;50.082;8.222;2022-07-24T08:55:47;27.20;67.30
1778;DHT22;886;50.082;8.222;2022-07-24T08:58:14;27.20;67.40
1778;DHT22;886;50.082;8.222;2022-07-24T09:00:41;27.10;67.50
1778;DHT22;886;50.082;8.222;2022-07-24T09:03:12;27.10;68.50
1778;DHT22;886;50.082;8.222;2022-07-24T09:05:54;27.10;67.20
1778;DHT22;886;50.082;8.222;2022-07-24T09:08:22;27.00;67.60
1778;DHT22;886;50.082;8.222;2022-07-24T09:10:54;27.00;67.60
1778;DHT22;886;50.082;8.222;2022-07-24T09:13:25;27.10;66.90
1778;DHT22;886;50.082;8.222;2022-07-24T09:15:56;27.10;67.40
1778;DHT22;886;50.082;8.222;2022-07-24T09:18:28;27.10;66.70
1778;DHT22;886;50.082;8.222;2022-07-24T09:21:12;27.10;66.50
1778;DHT22;886;50.082;8.222;2022-07-24T09:23:41;27.10;66.50
1778;DHT22;886;50.082;8.222;2022-07-24T09:26:12;27.20;66.80
1778;DHT22;886;50.082;8.222;2022-07-24T09:28:51;27.40;67.40
1778;DHT22;886;50.082;8.222;2022-07-24T09:31:20;27.40;66.70
1778;DHT22;886;50.082;8.222;2022-07-24T09:33:50;27.60;66.90
1778;DHT22;886;50.082;8.222;2022-07-24T09:36:19;27.80;65.60
1778;DHT22;886;50.082;8.222;2022-07-24T09:38:48;27.90;64.60
1778;DHT22;886;50.082;8.222;2022-07-24T09:41:20;27.90;65.00
1778;DHT22;886;50.082;8.222;2022-07-24T09:44:02;27.90;65.10
1778;DHT22;886;50.082;8.222;2022-07-24T09:46:46;28.00;64.90
1778;DHT22;886;50.082;8.222;2022-07-24T09:49:19;28.00;65.20
1778;DHT22;886;50.082;8.222;2022-07-24T09:54:53;28.10;65.30
1778;DHT22;886;50.082;8.222;2022-07-24T09:57:22;28.00;64.20
1778;DHT22;886;50.082;8.222;2022-07-24T09:59:52;27.90;65.40
1778;DHT22;886;50.082;8.222;2022-07-24T10:02:24;28.00;65.60
1778;DHT22;886;50.082;8.222;2022-07-24T10:04:53;28.00;66.30
1778;DHT22;886;50.082;8.222;2022-07-24T10:07:24;28.10;65.30
1778;DHT22;886;50.082;8.222;2022-07-24T10:09:54;28.20;65.30
1778;DHT22;886;50.082;8.222;2022-07-24T10:12:24;28.30;65.20
1778;DHT22;886;50.082;8.222;2022-07-24T10:14:54;28.50;63.80
1778;DHT22;886;50.082;8.222;2022-07-24T10:17:31;28.50;63.20
1778;DHT22;886;50.082;8.222;2022-07-24T10:20:04;28.50;67.30
1778;DHT22;886;50.082;8.222;2022-07-24T10:23:01;28.50;65.20
1778;DHT22;886;50.082;8.222;2022-07-24T10:25:33;28.40;66.50
1778;DHT22;886;50.082;8.222;2022-07-24T10:28:15;28.40;65.20
1778;DHT22;886;50.082;8.222;2022-07-24T10:30:51;28.40;62.80
1778;DHT22;886;50.082;8.222;2022-07-24T10:33:19;28.40;63.20
1778;DHT22;886;50.082;8.222;2022-07-24T10:35:47;28.40;63.10
1778;DHT22;886;50.082;8.222;2022-07-24T10:38:21;28.50;63.30
1778;DHT22;886;50.082;8.222;2022-07-24T10:40:52;28.60;62.70
1778;DHT22;886;50.082;8.222;2022-07-24T10:43:22;28.70;62.20
1778;DHT22;886;50.082;8.222;2022-07-24T10:46:11;28.50;62.60
1778;DHT22;886;50.082;8.222;2022-07-24T10:48:39;28.60;62.90
1778;DHT22;886;50.082;8.222;2022-07-24T10:51:15;28.60;62.90
1778;DHT22;886;50.082;8.222;2022-07-24T10:53:49;28.50;64.40
1778;DHT22;886;50.082;8.222;2022-07-24T10:56:20;28.50;64.30
1778;DHT22;886;50.082;8.222;2022-07-24T10:58:55;28.60;64.90
1778;DHT22;886;50.082;8.222;2022-07-24T11:01:31;28.70;63.00
1778;DHT22;886;50.082;8.222;2022-07-24T11:04:24;28.80;63.00
1778;DHT22;886;50.082;8.222;2022-07-24T11:07:08;28.80;62.10
1778;DHT22;886;50.082;8.222;2022-07-24T11:09:59;28.80;62.90
1778;DHT22;886;50.082;8.222;2022-07-24T11:12:41;28.90;62.90
1778;DHT22;886;50.082;8.222;2022-07-24T11:15:13;28.90;62.10
1778;DHT22;886;50.082;8.222;2022-07-24T11:18:13;28.90;61.50
1778;DHT22;886;50.082;8.222;2022-07-24T11:20:41;28.90;61.90
1778;DHT22;886;50.082;8.222;2022-07-24T11:23:19;28.90;62.40
1778;DHT22;886;50.082;8.222;2022-07-24T11:25:51;28.90;62.00
1778;DHT22;886;50.082;8.222;2022-07-24T11:28:18;28.90;62.70
1778;DHT22;886;50.082;8.222;2022-07-24T11:30:46;29.00;61.20
1778;DHT22;886;50.082;8.222;2022-07-24T11:33:20;29.00;61.20
1778;DHT22;886;50.082;8.222;2022-07-24T11:35:51;29.00;61.10
1778;DHT22;886;50.082;8.222;2022-07-24T11:38:23;28.90;61.20
1778;DHT22;886;50.082;8.222;2022-07-24T11:41:06;28.90;60.30
1778;DHT22;886;50.082;8.222;2022-07-24T11:43:34;28.80;58.80
1778;DHT22;886;50.082;8.222;2022-07-24T11:46:01;28.80;59.00
1778;DHT22;886;50.082;8.222;2022-07-24T11:48:28;28.90;58.40
1778;DHT22;886;50.082;8.222;2022-07-24T11:51:05;29.00;59.10
1778;DHT22;886;50.082;8.222;2022-07-24T11:53:53;29.00;59.30
1778;DHT22;886;50.082;8.222;2022-07-24T11:56:22;29.00;59.40
1778;DHT22;886;50.082;8.222;2022-07-24T11:58:51;29.00;60.40
1778;DHT22;886;50.082;8.222;2022-07-24T12:01:19;29.00;60.60
1778;DHT22;886;50.082;8.222;2022-07-24T12:03:51;29.00;60.30
1778;DHT22;886;50.082;8.222;2022-07-24T12:06:18;29.00;58.50
1778;DHT22;886;50.082;8.222;2022-07-24T12:08:46;29.00;58.70
1778;DHT22;886;50.082;8.222;2022-07-24T12:11:21;29.00;60.10
1778;DHT22;886;50.082;8.222;2022-07-24T12:13:49;29.00;60.60
1778;DHT22;886;50.082;8.222;2022-07-24T12:16:23;29.00;59.50
1778;DHT22;886;50.082;8.222;2022-07-24T12:18:50;29.10;60.00
1778;DHT22;886;50.082;8.222;2022-07-24T12:21:18;29.10;59.20
1778;DHT22;886;50.082;8.222;2022-07-24T12:23:45;29.10;59.80
1778;DHT22;886;50.082;8.222;2022-07-24T12:26:13;29.10;60.20
1778;DHT22;886;50.082;8.222;2022-07-24T12:28:41;29.10;58.00
1778;DHT22;886;50.082;8.222;2022-07-24T12:31:08;29.10;58.80
1778;DHT22;886;50.082;8.222;2022-07-24T12:33:36;29.20;59.00
1778;DHT22;886;50.082;8.222;2022-07-24T12:36:05;29.20;59.60
1778;DHT22;886;50.082;8.222;2022-07-24T12:38:39;29.20;60.40
1778;DHT22;886;50.082;8.222;2022-07-24T12:41:09;29.20;60.20
1778;DHT22;886;50.082;8.222;2022-07-24T12:43:50;29.20;61.00
1778;DHT22;886;50.082;8.222;2022-07-24T12:46:21;29.30;59.90
1778;DHT22;886;50.082;8.222;2022-07-24T12:48:58;29.30;59.20
1778;DHT22;886;50.082;8.222;2022-07-24T12:51:26;29.40;59.60
1778;DHT22;886;50.082;8.222;2022-07-24T12:53:55;29.40;59.20
1778;DHT22;886;50.082;8.222;2022-07-24T12:56:22;29.30;58.20
1778;DHT22;886;50.082;8.222;2022-07-24T12:58:54;29.30;58.10
1778;DHT22;886;50.082;8.222;2022-07-24T13:01:25;29.20;58.20
1778;DHT22;886;50.082;8.222;2022-07-24T13:03:56;29.20;58.70
1778;DHT22;886;50.082;8.222;2022-07-24T13:06:35;29.30;58.90
1778;DHT22;886;50.082;8.222;2022-07-24T13:09:05;29.40;58.90
1778;DHT22;886;50.082;8.222;2022-07-24T13:11:33;29.40;59.20
1778;DHT22;886;50.082;8.222;2022-07-24T13:14:03;29.40;58.90
1778;DHT22;886;50.082;8.222;2022-07-24T13:16:35;29.40;58.50
1778;DHT22;886;50.082;8.222;2022-07-24T13:19:05;29.40;59.40
1778;DHT22;886;50.082;8.222;2022-07-24T13:21:34;29.40;58.60
1778;DHT22;886;50.082;8.222;2022-07-24T13:24:02;29.40;58.40
1778;DHT22;886;50.082;8.222;2022-07-24T13:26:30;29.40;58.00
1778;DHT22;886;50.082;8.222;2022-07-24T13:28:58;29.50;58.30
1778;DHT22;886;50.082;8.222;2022-07-24T13:31:27;29.60;58.50
1778;DHT22;886;50.082;8.222;2022-07-24T13:33:54;29.60;58.40
1778;DHT22;886;50.082;8.222;2022-07-24T13:36:21;29.50;59.10
1778;DHT22;886;50.082;8.222;2022-07-24T13:38:51;29.70;58.80
1778;DHT22;886;50.082;8.222;2022-07-24T13:41:23;29.70;59.40
1778;DHT22;886;50.082;8.222;2022-07-24T13:43:51;29.70;60.30
1778;DHT22;886;50.082;8.222;2022-07-24T13:46:18;29.60;59.40
1778;DHT22;886;50.082;8.222;2022-07-24T13:48:49;29.70;58.70
1778;DHT22;886;50.082;8.222;2022-07-24T13:51:26;29.70;58.70
1778;DHT22;886;50.082;8.222;2022-07-24T13:54:00;29.70;57.50
1778;DHT22;886;50.082;8.222;2022-07-24T13:56:28;29.70;58.50
1778;DHT22;886;50.082;8.222;2022-07-24T13:58:56;29.70;58.50
1778;DHT22;886;50.082;8.222;2022-07-24T14:01:24;29.60;58.20
1778;DHT22;886;50.082;8.222;2022-07-24T14:04:02;29.60;59.30
1778;DHT22;886;50.082;8.222;2022-07-24T14:06:51;29.70;58.70
1778;DHT22;886;50.082;8.222;2022-07-24T14:09:18;29.70;59.60
1778;DHT22;886;50.082;8.222;2022-07-24T14:11:49;29.70;59.20
1778;DHT22;886;50.082;8.222;2022-07-24T14:14:16;29.70;59.40
1778;DHT22;886;50.082;8.222;2022-07-24T14:16:43;29.70;59.40
1778;DHT22;886;50.082;8.222;2022-07-24T14:19:12;29.70;59.90
1778;DHT22;886;50.082;8.222;2022-07-24T14:21:39;29.80;59.00
1778;DHT22;886;50.082;8.222;2022-07-24T14:24:06;29.70;59.00
1778;DHT22;886;50.082;8.222;2022-07-24T14:26:44;29.70;59.70
1778;DHT22;886;50.082;8.222;2022-07-24T14:29:15;29.70;59.30
1778;DHT22;886;50.082;8.222;2022-07-24T14:31:42;29.70;57.70
1778;DHT22;886;50.082;8.222;2022-07-24T14:34:10;29.80;58.00
1778;DHT22;886;50.082;8.222;2022-07-24T14:36:42;29.80;58.90
1778;DHT22;886;50.082;8.222;2022-07-24T14:39:09;29.70;59.50
1778;DHT22;886;50.082;8.222;2022-07-24T14:41:37;29.70;59.10
1778;DHT22;886;50.082;8.222;2022-07-24T14:44:05;29.70;59.40
1778;DHT22;886;50.082;8.222;2022-07-24T14:46:36;29.70;59.80
1778;DHT22;886;50.082;8.222;2022-07-24T14:49:04;29.70;59.60
1778;DHT22;886;50.082;8.222;2022-07-24T14:51:33;29.70;59.50
1778;DHT22;886;50.082;8.222;2022-07-24T14:54:00;29.70;59.50
1778;DHT22;886;50.082;8.222;2022-07-24T14:56:31;29.70;59.10
1778;DHT22;886;50.082;8.222;2022-07-24T14:58:58;29.70;59.00
1778;DHT22;886;50.082;8.222;2022-07-24T15:01:28;29.70;58.50
1778;DHT22;886;50.082;8.222;2022-07-24T15:04:03;29.80;58.30
1778;DHT22;886;50.082;8.222;2022-07-24T15:06:31;29.90;58.00
1778;DHT22;886;50.082;8.222;2022-07-24T15:08:59;29.90;58.40
1778;DHT22;886;50.082;8.222;2022-07-24T15:11:26;29.90;58.40
1778;DHT22;886;50.082;8.222;2022-07-24T15:13:55;29.90;59.00
1778;DHT22;886;50.082;8.222;2022-07-24T15:16:23;29.80;59.60
1778;DHT22;886;50.082;8.222;2022-07-24T15:18:50;29.80;59.00
1778;DHT22;886;50.082;8.222;2022-07-24T15:21:17;29.80;58.80
1778;DHT22;886;50.082;8.222;2022-07-24T15:23:46;29.70;58.00
1778;DHT22;886;50.082;8.222;2022-07-24T15:26:13;29.80;58.60
1778;DHT22;886;50.082;8.222;2022-07-24T15:28:41;29.90;57.90
1778;DHT22;886;50.082;8.222;2022-07-24T15:31:08;29.80;57.70
1778;DHT22;886;50.082;8.222;2022-07-24T15:33:37;29.80;58.50
1778;DHT22;886;50.082;8.222;2022-07-24T15:36:06;29.70;58.80
1778;DHT22;886;50.082;8.222;2022-07-24T15:38:33;29.70;58.60
1778;DHT22;886;50.082;8.222;2022-07-24T15:41:05;29.70;59.00
1778;DHT22;886;50.082;8.222;2022-07-24T15:43:32;29.80;58.20
1778;DHT22;886;50.082;8.222;2022-07-24T15:45:59;29.80;57.80
1778;DHT22;886;50.082;8.222;2022-07-24T15:48:30;29.80;58.10
1778;DHT22;886;50.082;8.222;2022-07-24T15:50:58;29.80;57.90
1778;DHT22;886;50.082;8.222;2022-07-24T15:53:25;29.80;58.60
1778;DHT22;886;50.082;8.222;2022-07-24T15:55:52;29.80;58.40
1778;DHT22;886;50.082;8.222;2022-07-24T15:58:21;29.80;58.30
1778;DHT22;886;50.082;8.222;2022-07-24T16:00:50;29.90;57.90
1778;DHT22;886;50.082;8.222;2022-07-24T16:03:22;29.90;58.10
1778;DHT22;886;50.082;8.222;2022-07-24T16:05:51;29.90;57.70
1778;DHT22;886;50.082;8.222;2022-07-24T16:08:21;29.90;57.50
1778;DHT22;886;50.082;8.222;2022-07-24T16:10:51;30.00;57.40
1778;DHT22;886;50.082;8.222;2022-07-24T16:13:18;29.90;57.20
1778;DHT22;886;50.082;8.222;2022-07-24T16:15:46;29.80;57.50
1778;DHT22;886;50.082;8.222;2022-07-24T16:18:17;29.80;57.30
1778;DHT22;886;50.082;8.222;2022-07-24T16:20:44;29.80;57.20
1778;DHT22;886;50.082;8.222;2022-07-24T16:23:11;29.70;57.40
1778;DHT22;886;50.082;8.222;2022-07-24T16:25:38;29.70;57.70
1778;DHT22;886;50.082;8.222;2022-07-24T16:28:05;29.60;57.70
1778;DHT22;886;50.082;8.222;2022-07-24T16:30:33;29.70;57.70
1778;DHT22;886;50.082;8.222;2022-07-24T16:33:01;29.70;57.40